Time;durP1;ratioP1;P1;durP2;ratioP2;P2;SDS_P1;SDS_P2;PMS_P1;PMS_P2;Temp;Humidity;BMP_temperature;BMP_pressure;BME280_temperature;BME280_humidity;BME280_pressure;Samples;Min_cycle;Max_cycle;Signal;HPM_P1;HPM_P2
2021/03/20 00:00:57;;;;;;;8.70;7.80;;;2.20;99.90;;;;;;4974280;28;20292;-72
2021/03/20 00:03:24;;;;;;;10.90;8.60;;;2.20;99.90;;;;;;4974535;28;20205;-75
2021/03/20 00:05:51;;;;;;;8.20;7.40;;;2.30;99.90;;;;;;4974153;28;20679;-71
2021/03/20 00:08:21;;;;;;;10.50;8.23;;;2.20;99.90;;;;;;4974027;28;20209;-75
2021/03/20 00:10:48;;;;;;;11.73;7.90;;;2.30;99.90;;;;;;4972294;28;20208;-73
2021/03/20 00:13:18;;;;;;;9.73;8.73;;;2.40;99.90;;;;;;4974360;28;20206;-72
2021/03/20 00:15:45;;;;;;;10.73;8.53;;;2.30;99.90;;;;;;4973978;28;20673;-72
2021/03/20 00:18:12;;;;;;;10.77;9.33;;;2.30;99.90;;;;;;4973480;28;20277;-72
2021/03/20 00:20:41;;;;;;;9.57;8.03;;;2.20;99.90;;;;;;4974421;28;20214;-71
2021/03/20 00:23:09;;;;;;;13.23;8.70;;;2.20;99.90;;;;;;4974293;28;20212;-71
2021/03/20 00:25:36;;;;;;;10.90;7.70;;;2.10;99.90;;;;;;4973953;28;20211;-73
2021/03/20 00:28:05;;;;;;;7.77;6.30;;;2.10;99.90;;;;;;4971936;28;20602;-79
2021/03/20 00:30:33;;;;;;;7.23;6.50;;;2.10;99.90;;;;;;4973430;28;20205;-73
2021/03/20 00:32:59;;;;;;;8.63;6.57;;;2.10;99.90;;;;;;4973541;28;20223;-75
2021/03/20 00:35:26;;;;;;;8.73;6.47;;;2.10;99.90;;;;;;4974221;28;20272;-76
2021/03/20 00:37:54;;;;;;;7.63;6.30;;;2.10;99.90;;;;;;4963867;28;20209;-73
2021/03/20 00:40:24;;;;;;;7.33;6.60;;;2.30;99.90;;;;;;4954358;28;20242;-70
2021/03/20 00:42:51;;;;;;;7.63;6.63;;;2.40;99.90;;;;;;4954172;29;20546;-76
2021/03/20 00:45:19;;;;;;;6.80;5.70;;;2.30;99.90;;;;;;4954674;29;20209;-74
2021/03/20 00:47:47;;;;;;;9.00;6.40;;;2.30;99.90;;;;;;4953705;28;20213;-72
2021/03/20 00:50:16;;;;;;;7.70;6.63;;;2.30;99.90;;;;;;4954428;29;20217;-74
2021/03/20 00:52:42;;;;;;;10.53;6.37;;;2.10;99.90;;;;;;4970058;28;20589;-73
2021/03/20 00:55:10;;;;;;;8.27;6.40;;;2.00;99.90;;;;;;4973720;28;20231;-75
2021/03/20 00:57:37;;;;;;;8.73;6.53;;;2.10;99.90;;;;;;4974105;28;20588;-71
2021/03/20 01:00:07;;;;;;;9.57;6.47;;;2.10;99.90;;;;;;4973630;28;20236;-71
2021/03/20 01:02:34;;;;;;;9.60;7.43;;;2.10;99.90;;;;;;4973813;28;20228;-74
2021/03/20 01:05:02;;;;;;;9.23;6.17;;;2.00;99.90;;;;;;4971897;28;20215;-72
2021/03/20 01:07:28;;;;;;;8.37;6.60;;;2.00;99.90;;;;;;4967348;28;20214;-72
2021/03/20 01:09:54;;;;;;;7.67;5.60;;;1.90;99.90;;;;;;4953857;28;20264;-72
2021/03/20 01:12:21;;;;;;;8.70;6.63;;;1.90;99.90;;;;;;4953892;28;20213;-74
2021/03/20 01:14:48;;;;;;;7.03;6.33;;;2.00;99.90;;;;;;4953430;28;20205;-72
2021/03/20 01:17:14;;;;;;;9.67;8.47;;;2.10;99.90;;;;;;4958512;28;20710;-73
2021/03/20 01:19:40;;;;;;;8.40;5.97;;;2.10;99.90;;;;;;4953439;28;20612;-75
2021/03/20 01:22:08;;;;;;;6.93;5.77;;;2.10;99.90;;;;;;4953970;28;20570;-78
2021/03/20 01:24:34;;;;;;;9.03;6.80;;;2.20;99.90;;;;;;4954303;28;20595;-74
2021/03/20 01:27:01;;;;;;;6.63;5.93;;;2.20;99.90;;;;;;4953576;28;20210;-81
2021/03/20 01:29:27;;;;;;;11.63;6.17;;;2.20;99.90;;;;;;4953769;28;20214;-78
2021/03/20 01:31:54;;;;;;;7.63;5.60;;;2.20;99.90;;;;;;4963997;28;20202;-72
2021/03/20 01:34:20;;;;;;;7.67;6.43;;;2.20;99.90;;;;;;4973159;28;20256;-77
2021/03/20 01:36:47;;;;;;;8.80;6.00;;;2.20;99.90;;;;;;4972606;28;20205;-69
2021/03/20 01:39:14;;;;;;;8.17;6.33;;;2.20;99.90;;;;;;4972440;28;20242;-72
2021/03/20 01:41:42;;;;;;;10.13;6.47;;;2.10;99.90;;;;;;4957948;28;20220;-76
2021/03/20 01:44:16;;;;;;;7.57;6.50;;;2.10;99.90;;;;;;4952967;28;20622;-76
2021/03/20 01:46:47;;;;;;;6.70;6.00;;;2.00;99.90;;;;;;4953309;28;20208;-69
2021/03/20 01:49:25;;;;;;;7.20;5.63;;;2.00;99.90;;;;;;4953306;28;20209;-71
2021/03/20 01:52:05;;;;;;;7.57;6.03;;;2.10;99.90;;;;;;4953932;28;20224;-69
2021/03/20 01:54:41;;;;;;;6.70;6.00;;;2.10;99.90;;;;;;4953402;29;20209;-69
2021/03/20 01:57:08;;;;;;;6.50;5.30;;;2.10;99.90;;;;;;4953331;29;20585;-68
2021/03/20 01:59:35;;;;;;;7.53;6.40;;;2.00;99.90;;;;;;4956364;28;20227;-68
2021/03/20 02:02:02;;;;;;;6.43;5.23;;;2.10;99.90;;;;;;4956013;28;20265;-71
2021/03/20 02:04:29;;;;;;;7.43;6.23;;;2.00;99.90;;;;;;4953026;28;20205;-69
2021/03/20 02:06:55;;;;;;;7.60;6.07;;;1.90;99.90;;;;;;4953628;28;20198;-67
2021/03/20 02:09:22;;;;;;;8.80;6.47;;;1.80;99.90;;;;;;4953165;28;20211;-69
2021/03/20 02:12:00;;;;;;;9.07;5.97;;;2.00;99.90;;;;;;4952743;28;20257;-68
2021/03/20 02:14:36;;;;;;;5.50;4.87;;;2.00;99.90;;;;;;4952904;29;20213;-69
2021/03/20 02:17:10;;;;;;;6.73;4.87;;;2.00;99.90;;;;;;4952835;29;20657;-77
2021/03/20 02:20:04;;;;;;;6.67;5.30;;;2.00;99.90;;;;;;4953204;29;20280;-72
2021/03/20 02:23:00;;;;;;;5.97;5.37;;;2.00;99.90;;;;;;4952972;29;20671;-70
2021/03/20 02:26:00;;;;;;;5.97;4.90;;;2.00;99.90;;;;;;4952755;29;20206;-69
2021/03/20 02:28:50;;;;;;;5.73;5.00;;;2.00;99.90;;;;;;4953523;28;20264;-69
2021/03/20 02:31:49;;;;;;;5.57;5.03;;;2.00;99.90;;;;;;4952757;29;20207;-70
2021/03/20 02:34:27;;;;;;;5.27;4.53;;;1.90;99.90;;;;;;4952977;29;20210;-68
2021/03/20 02:37:01;;;;;;;4.87;3.83;;;1.80;99.90;;;;;;4952368;29;20658;-70
2021/03/20 02:39:35;;;;;;;6.13;5.53;;;1.90;99.90;;;;;;4952633;28;20245;-70
2021/03/20 02:42:08;;;;;;;8.03;4.73;;;1.90;99.90;;;;;;4953205;28;20210;-70
2021/03/20 02:44:41;;;;;;;7.60;5.30;;;1.90;99.90;;;;;;4953149;29;20202;-70
2021/03/20 02:47:10;;;;;;;5.97;5.43;;;1.90;99.90;;;;;;4952986;29;20206;-70
2021/03/20 02:49:44;;;;;;;5.63;4.87;;;1.80;99.90;;;;;;4952926;29;20666;-70
2021/03/20 02:52:17;;;;;;;7.17;5.70;;;1.80;99.90;;;;;;4952350;28;20732;-70
2021/03/20 02:54:49;;;;;;;6.20;5.60;;;1.80;99.90;;;;;;4955104;28;20214;-69
2021/03/20 02:57:20;;;;;;;6.30;5.80;;;1.80;99.90;;;;;;4971915;28;20206;-70
2021/03/20 02:59:51;;;;;;;6.27;5.67;;;1.80;99.90;;;;;;4975332;28;20229;-70
2021/03/20 03:02:21;;;;;;;6.80;6.10;;;1.70;99.90;;;;;;4975504;28;20252;-70
2021/03/20 03:04:52;;;;;;;6.37;5.77;;;1.70;99.90;;;;;;4963916;28;20595;-69
2021/03/20 03:07:23;;;;;;;8.30;5.93;;;1.60;99.90;;;;;;4956436;29;20265;-72
2021/03/20 03:09:54;;;;;;;8.00;7.20;;;1.60;99.90;;;;;;4955885;29;20214;-69
2021/03/20 03:12:26;;;;;;;8.30;6.30;;;1.60;99.90;;;;;;4955946;28;20640;-69
2021/03/20 03:14:58;;;;;;;11.17;8.23;;;1.50;99.90;;;;;;4955776;28;20281;-71
2021/03/20 03:17:27;;;;;;;10.57;9.47;;;1.50;99.90;;;;;;4956114;29;20210;-70
2021/03/20 03:19:59;;;;;;;12.60;9.60;;;1.50;99.90;;;;;;4955745;29;20237;-70
2021/03/20 03:22:32;;;;;;;12.47;10.67;;;1.40;99.90;;;;;;4956085;29;20202;-70
2021/03/20 03:25:04;;;;;;;11.77;9.73;;;1.40;99.90;;;;;;4964977;28;20273;-69
2021/03/20 03:27:35;;;;;;;10.57;9.50;;;1.30;99.90;;;;;;4974759;28;20209;-69
2021/03/20 03:30:05;;;;;;;10.77;8.97;;;1.30;99.90;;;;;;4974806;28;20201;-70
2021/03/20 03:32:34;;;;;;;9.93;8.53;;;1.20;99.90;;;;;;4975312;28;20256;-69
2021/03/20 03:35:08;;;;;;;9.43;8.27;;;1.20;99.90;;;;;;4974157;28;20210;-69
2021/03/20 03:37:40;;;;;;;11.23;9.20;;;1.10;99.90;;;;;;4975214;28;20674;-69
2021/03/20 03:40:11;;;;;;;10.23;9.03;;;1.10;99.90;;;;;;4974816;28;20705;-69
2021/03/20 03:42:38;;;;;;;10.40;8.30;;;1.20;99.90;;;;;;4974754;28;20201;-69
2021/03/20 03:45:07;;;;;;;8.93;6.90;;;1.30;99.90;;;;;;4973011;28;20249;-75
2021/03/20 03:47:34;;;;;;;9.03;7.57;;;1.30;99.90;;;;;;4975217;28;20209;-69
2021/03/20 03:50:06;;;;;;;8.67;6.63;;;1.30;99.90;;;;;;4974351;28;20662;-70
2021/03/20 03:52:33;;;;;;;8.07;7.27;;;1.30;99.90;;;;;;4972387;28;20256;-71
2021/03/20 03:54:59;;;;;;;9.13;6.40;;;1.20;99.90;;;;;;4954917;28;20214;-70
2021/03/20 03:57:51;;;;;;;10.93;7.13;;;1.20;99.90;;;;;;4955490;29;20577;-71
2021/03/20 04:00:26;;;;;;;7.50;6.70;;;1.20;99.90;;;;;;4955328;29;20611;-71
2021/03/20 04:03:29;;;;;;;9.50;7.67;;;1.20;99.90;;;;;;4954717;29;20205;-70
2021/03/20 04:06:10;;;;;;;8.63;7.00;;;1.30;99.90;;;;;;4974033;28;20201;-69
2021/03/20 04:08:46;;;;;;;8.43;7.33;;;1.20;99.90;;;;;;4974415;28;20210;-69
2021/03/20 04:11:21;;;;;;;10.03;7.50;;;1.20;99.90;;;;;;4974647;28;20233;-70
2021/03/20 04:13:54;;;;;;;7.67;6.70;;;1.20;99.90;;;;;;4974002;28;20205;-72
2021/03/20 04:16:25;;;;;;;11.83;9.33;;;1.20;99.90;;;;;;4973903;28;20217;-72
2021/03/20 04:19:02;;;;;;;16.97;11.03;;;1.20;99.90;;;;;;4973936;28;20202;-71
2021/03/20 04:21:38;;;;;;;14.90;12.10;;;1.20;99.90;;;;;;4961242;28;20206;-70
2021/03/20 04:24:09;;;;;;;13.10;9.93;;;1.10;99.90;;;;;;4955060;28;20222;-72
2021/03/20 04:26:43;;;;;;;11.53;8.73;;;1.20;99.90;;;;;;4955240;28;20327;-72
2021/03/20 04:29:18;;;;;;;10.87;8.43;;;1.20;99.90;;;;;;4954699;28;20257;-69
2021/03/20 04:31:51;;;;;;;12.43;7.57;;;1.10;99.90;;;;;;4954444;29;20208;-70
2021/03/20 04:34:23;;;;;;;8.87;7.07;;;1.00;99.90;;;;;;4955023;28;20225;-70
2021/03/20 04:36:54;;;;;;;9.53;7.20;;;1.00;99.90;;;;;;4954294;28;20261;-70
2021/03/20 04:39:25;;;;;;;7.90;6.47;;;1.00;99.90;;;;;;4954264;28;20246;-71
2021/03/20 04:41:52;;;;;;;8.33;6.13;;;1.00;99.90;;;;;;4954211;29;20202;-71
2021/03/20 04:44:19;;;;;;;10.20;7.20;;;1.00;99.90;;;;;;4955250;28;20207;-71
2021/03/20 04:46:46;;;;;;;7.47;6.53;;;1.10;99.90;;;;;;4973235;28;20283;-70
2021/03/20 04:49:32;;;;;;;8.33;6.50;;;1.00;99.90;;;;;;4973840;28;20674;-70
2021/03/20 04:52:06;;;;;;;7.13;6.00;;;1.10;99.90;;;;;;4973284;28;20206;-70
2021/03/20 04:54:33;;;;;;;8.00;6.80;;;1.10;99.90;;;;;;4972079;28;20205;-70
2021/03/20 04:57:06;;;;;;;8.17;7.33;;;1.00;99.90;;;;;;4956453;28;20748;-68
2021/03/20 04:59:55;;;;;;;10.83;7.43;;;1.00;99.90;;;;;;4954611;28;20241;-70
2021/03/20 05:02:26;;;;;;;9.23;7.40;;;1.00;99.90;;;;;;4954104;28;20745;-69
2021/03/20 05:04:59;;;;;;;11.17;7.97;;;0.90;99.90;;;;;;4965576;28;20608;-71
2021/03/20 05:07:27;;;;;;;8.87;7.47;;;0.80;99.90;;;;;;4973283;28;20213;-70
2021/03/20 05:09:58;;;;;;;8.03;6.83;;;0.70;99.90;;;;;;4973176;28;20201;-68
2021/03/20 05:12:28;;;;;;;10.30;6.77;;;0.90;99.90;;;;;;4971138;28;20217;-70
2021/03/20 05:15:01;;;;;;;8.10;6.77;;;0.80;99.90;;;;;;4953716;29;20269;-69
2021/03/20 05:17:27;;;;;;;7.60;6.00;;;1.00;99.90;;;;;;4953897;29;20206;-70
2021/03/20 05:19:54;;;;;;;8.73;6.90;;;0.90;99.90;;;;;;4952669;28;20241;-71
2021/03/20 05:22:24;;;;;;;8.70;6.50;;;0.90;99.90;;;;;;4953753;29;20286;-68
2021/03/20 05:24:53;;;;;;;8.17;6.50;;;0.90;99.90;;;;;;4957984;28;20214;-68
2021/03/20 05:27:24;;;;;;;9.37;7.37;;;0.80;99.90;;;;;;4972472;28;20617;-74
2021/03/20 05:29:51;;;;;;;7.80;6.70;;;0.90;99.90;;;;;;4972702;28;20717;-68
2021/03/20 05:32:24;;;;;;;7.50;5.63;;;0.80;99.90;;;;;;4972923;28;20264;-69
2021/03/20 05:34:51;;;;;;;7.43;6.37;;;0.70;99.90;;;;;;4958004;28;20218;-69
2021/03/20 05:37:24;;;;;;;7.60;6.23;;;0.70;99.90;;;;;;4953438;28;20202;-71
2021/03/20 05:39:52;;;;;;;8.77;7.90;;;0.60;99.90;;;;;;4952958;29;20284;-70
2021/03/20 05:42:35;;;;;;;8.40;6.63;;;0.60;99.90;;;;;;4953456;28;20222;-69
2021/03/20 05:45:13;;;;;;;9.00;7.37;;;0.70;99.90;;;;;;4971492;28;20393;-69
2021/03/20 05:47:55;;;;;;;9.00;8.07;;;0.70;99.90;;;;;;4953009;28;20576;-68
2021/03/20 05:50:36;;;;;;;8.37;6.20;;;0.80;99.90;;;;;;4953126;29;20213;-70
2021/03/20 05:53:34;;;;;;;7.87;6.63;;;0.60;99.90;;;;;;4952949;28;20206;-70
2021/03/20 05:56:08;;;;;;;9.53;7.60;;;0.50;99.90;;;;;;4953510;28;20214;-75
2021/03/20 05:58:54;;;;;;;8.67;6.53;;;0.50;99.90;;;;;;4953287;29;20249;-74
2021/03/20 06:01:33;;;;;;;10.13;8.73;;;0.70;99.90;;;;;;4960524;28;20205;-69
2021/03/20 06:04:41;;;;;;;8.57;7.77;;;0.70;99.90;;;;;;4971516;28;20933;-70
2021/03/20 06:07:46;;;;;;;9.37;7.20;;;0.80;99.90;;;;;;4972689;28;20737;-68
2021/03/20 06:10:31;;;;;;;9.13;7.03;;;0.80;99.90;;;;;;4971923;28;20194;-68
2021/03/20 06:13:18;;;;;;;8.33;6.83;;;0.60;99.90;;;;;;4972185;28;20620;-69
2021/03/20 06:16:09;;;;;;;10.87;8.07;;;0.70;99.90;;;;;;4963552;28;20661;-69
2021/03/20 06:19:02;;;;;;;11.90;8.17;;;0.80;99.90;;;;;;4972254;28;20201;-68
2021/03/20 06:21:40;;;;;;;10.10;8.27;;;0.90;99.90;;;;;;4942534;28;20213;-68
2021/03/20 06:24:54;;;;;;;10.63;9.03;;;0.80;99.90;;;;;;4972542;28;20200;-68
2021/03/20 06:27:30;;;;;;;12.13;9.17;;;1.00;99.90;;;;;;4913742;28;20217;-70
2021/03/20 06:30:02;;;;;;;10.63;9.07;;;1.10;99.90;;;;;;4971802;28;20205;-72
2021/03/20 06:32:34;;;;;;;16.00;10.90;;;1.20;99.90;;;;;;4971871;28;20213;-72
2021/03/20 06:35:07;;;;;;;12.77;9.93;;;1.20;99.90;;;;;;4971549;28;20220;-70
2021/03/20 06:37:39;;;;;;;14.43;9.90;;;1.20;99.90;;;;;;4972225;28;20198;-70
2021/03/20 06:40:18;;;;;;;12.37;8.90;;;1.40;99.90;;;;;;4972199;28;20236;-75
2021/03/20 06:42:46;;;;;;;12.50;9.77;;;1.40;99.90;;;;;;4967009;28;20198;-73
2021/03/20 06:45:19;;;;;;;12.10;10.13;;;1.50;99.90;;;;;;4962169;28;20690;-71
2021/03/20 06:47:47;;;;;;;13.60;10.00;;;1.60;99.90;;;;;;4971797;28;20209;-73
2021/03/20 06:50:19;;;;;;;10.13;9.07;;;1.60;99.90;;;;;;4968787;28;20206;-70
2021/03/20 06:52:51;;;;;;;10.07;8.73;;;1.60;99.90;;;;;;4964813;28;20202;-72
2021/03/20 06:55:25;;;;;;;12.37;8.93;;;1.60;99.90;;;;;;4953509;28;20687;-73
2021/03/20 06:57:52;;;;;;;10.30;8.30;;;1.70;99.90;;;;;;4951403;29;20874;-72
2021/03/20 07:00:25;;;;;;;10.73;9.00;;;1.90;99.90;;;;;;4950764;29;20238;-75
2021/03/20 07:03:26;;;;;;;14.00;9.40;;;2.20;99.90;;;;;;4962598;28;20202;-69
2021/03/20 07:05:57;;;;;;;11.77;9.13;;;2.10;99.90;;;;;;4970966;28;20229;-72
2021/03/20 07:08:34;;;;;;;10.10;8.33;;;2.10;99.90;;;;;;4962736;28;20201;-69
2021/03/20 07:11:02;;;;;;;8.97;8.03;;;2.10;99.90;;;;;;4966819;28;20217;-70
2021/03/20 07:13:30;;;;;;;11.77;9.30;;;2.20;99.90;;;;;;4966298;28;20720;-71
2021/03/20 07:16:05;;;;;;;8.67;7.53;;;2.20;99.90;;;;;;4971482;28;20206;-70
2021/03/20 07:18:35;;;;;;;9.47;8.40;;;2.40;99.90;;;;;;4971557;28;20228;-72
2021/03/20 07:21:17;;;;;;;11.93;8.37;;;2.40;99.90;;;;;;4967276;28;20238;-70
2021/03/20 07:23:52;;;;;;;10.07;8.17;;;2.40;99.90;;;;;;4968480;28;20576;-72
2021/03/20 07:26:19;;;;;;;8.77;7.17;;;2.80;99.90;;;;;;4971269;28;20214;-73
2021/03/20 07:28:49;;;;;;;8.23;7.10;;;2.90;99.90;;;;;;4971208;28;20206;-74
2021/03/20 07:31:17;;;;;;;11.23;9.50;;;3.10;99.90;;;;;;4971238;28;20209;-72
2021/03/20 07:33:46;;;;;;;9.87;7.33;;;3.10;99.90;;;;;;4953919;28;20210;-71
2021/03/20 07:36:21;;;;;;;8.50;6.70;;;3.20;99.90;;;;;;4955621;28;20595;-69
2021/03/20 07:39:05;;;;;;;10.37;7.13;;;3.50;99.90;;;;;;4958899;28;20216;-71
2021/03/20 07:41:44;;;;;;;8.07;6.13;;;3.70;99.90;;;;;;4974118;28;20262;-71
2021/03/20 07:44:10;;;;;;;7.87;6.47;;;3.90;99.90;;;;;;4968574;28;20213;-69
2021/03/20 07:46:39;;;;;;;7.00;5.83;;;4.10;99.90;;;;;;4969205;28;20205;-69
2021/03/20 07:49:20;;;;;;;8.17;7.23;;;4.30;99.90;;;;;;4964980;28;20234;-71
2021/03/20 07:51:48;;;;;;;7.27;6.33;;;4.60;99.90;;;;;;4968156;28;20332;-70
2021/03/20 07:54:25;;;;;;;6.40;5.80;;;5.50;99.90;;;;;;4968106;28;20210;-72
2021/03/20 07:56:52;;;;;;;7.03;6.07;;;5.10;99.90;;;;;;4973194;28;20628;-71
2021/03/20 07:59:30;;;;;;;8.07;6.23;;;4.50;99.90;;;;;;4970317;28;20236;-73
2021/03/20 08:01:59;;;;;;;8.43;5.97;;;4.30;99.90;;;;;;4964998;28;20206;-70
2021/03/20 08:04:52;;;;;;;8.50;6.17;;;4.50;99.90;;;;;;4965883;28;20209;-71
2021/03/20 08:07:37;;;;;;;10.03;6.33;;;5.40;99.90;;;;;;4971277;28;20212;-76
2021/03/20 08:10:20;;;;;;;8.33;6.43;;;4.80;99.90;;;;;;4962134;28;20697;-71
2021/03/20 08:12:53;;;;;;;8.17;6.90;;;4.70;99.90;;;;;;4963016;28;20206;-70
2021/03/20 08:15:25;;;;;;;6.73;6.03;;;4.70;99.90;;;;;;4971955;28;20677;-70
2021/03/20 08:17:52;;;;;;;7.60;6.27;;;5.30;99.90;;;;;;4973707;28;20198;-71
2021/03/20 08:20:19;;;;;;;7.47;6.67;;;5.70;99.90;;;;;;4973274;28;20237;-71
2021/03/20 08:23:01;;;;;;;8.03;5.97;;;5.60;99.90;;;;;;4971563;28;20264;-71
2021/03/20 08:25:37;;;;;;;8.43;6.97;;;5.40;99.90;;;;;;4971576;28;20607;-70
2021/03/20 08:28:32;;;;;;;6.67;5.47;;;6.30;99.90;;;;;;4964919;28;20213;-73
2021/03/20 08:31:07;;;;;;;6.43;5.77;;;7.00;99.90;;;;;;4976094;28;20202;-72
2021/03/20 08:33:46;;;;;;;8.10;6.20;;;6.50;99.90;;;;;;4973623;28;20207;-73
2021/03/20 08:36:20;;;;;;;7.60;6.43;;;5.90;99.90;;;;;;4963573;28;20224;-72
2021/03/20 08:38:54;;;;;;;7.63;6.43;;;6.50;99.90;;;;;;4963377;28;20211;-71
2021/03/20 08:41:31;;;;;;;7.20;6.47;;;6.40;99.90;;;;;;4958369;28;20233;-75
2021/03/20 08:44:28;;;;;;;7.00;6.30;;;6.90;99.90;;;;;;4960640;28;20666;-73
2021/03/20 08:47:06;;;;;;;7.50;6.77;;;6.90;99.90;;;;;;4956484;28;20850;-73
2021/03/20 08:49:44;;;;;;;7.73;6.73;;;6.10;99.90;;;;;;4953085;29;20217;-71
2021/03/20 08:52:21;;;;;;;10.40;7.27;;;6.20;99.90;;;;;;4956945;28;20213;-74
2021/03/20 08:55:16;;;;;;;7.27;6.57;;;6.80;99.90;;;;;;4972014;28;20205;-73
2021/03/20 08:57:52;;;;;;;7.63;5.80;;;8.80;99.90;;;;;;4971237;28;20213;-74
2021/03/20 09:00:26;;;;;;;9.47;6.87;;;10.90;99.90;;;;;;4970413;28;20257;-74
2021/03/20 09:02:59;;;;;;;7.80;6.10;;;9.00;99.90;;;;;;4963055;28;20195;-74
2021/03/20 09:05:31;;;;;;;7.53;6.83;;;10.00;99.90;;;;;;4963061;28;20197;-75
2021/03/20 09:08:03;;;;;;;6.97;6.27;;;10.10;99.90;;;;;;4970482;28;20220;-74
2021/03/20 09:10:37;;;;;;;7.57;6.63;;;9.20;99.90;;;;;;4972336;28;20201;-78
2021/03/20 09:13:18;;;;;;;8.90;7.00;;;8.50;99.90;;;;;;4973184;28;20211;-75
2021/03/20 09:15:50;;;;;;;8.03;7.23;;;8.90;99.90;;;;;;4956351;28;20206;-74
2021/03/20 09:18:18;;;;;;;7.67;6.97;;;8.70;99.90;;;;;;4953964;28;20276;-75
2021/03/20 09:20:49;;;;;;;8.03;7.23;;;11.10;99.90;;;;;;4953491;28;20238;-75
2021/03/20 09:23:25;;;;;;;7.50;6.80;;;13.30;99.90;;;;;;4953939;28;20230;-74
2021/03/20 09:25:56;;;;;;;7.47;6.60;;;11.30;99.90;;;;;;4953408;29;20213;-74
2021/03/20 09:28:29;;;;;;;8.83;7.93;;;10.70;99.90;;;;;;4952586;28;20717;-75
2021/03/20 09:31:01;;;;;;;6.93;6.10;;;13.50;99.90;;;;;;4954471;28;20216;-75
2021/03/20 09:33:40;;;;;;;7.90;7.10;;;13.80;99.90;;;;;;4952909;28;20202;-73
2021/03/20 09:36:29;;;;;;;8.07;7.27;;;14.60;99.90;;;;;;4966118;28;20237;-75
2021/03/20 09:38:56;;;;;;;10.07;6.83;;;14.80;99.90;;;;;;4963705;28;20209;-75
2021/03/20 09:41:37;;;;;;;7.10;5.80;;;14.60;99.90;;;;;;4958379;28;20242;-76
2021/03/20 09:44:22;;;;;;;6.80;6.10;;;15.10;99.90;;;;;;4952376;28;20667;-73
2021/03/20 09:46:58;;;;;;;7.30;5.93;;;14.40;99.90;;;;;;4952800;28;20692;-75
2021/03/20 09:49:59;;;;;;;7.13;6.30;;;10.70;99.90;;;;;;4970311;28;20213;-73
2021/03/20 09:52:49;;;;;;;7.70;6.90;;;11.00;99.90;;;;;;4972627;28;20209;-73
2021/03/20 09:55:34;;;;;;;9.97;7.23;;;14.30;99.90;;;;;;4972526;28;20280;-75
2021/03/20 09:58:02;;;;;;;6.73;6.13;;;13.60;99.90;;;;;;4972017;28;20209;-74
2021/03/20 10:01:09;;;;;;;8.67;6.73;;;11.10;99.90;;;;;;4958292;28;20272;-73
2021/03/20 10:03:40;;;;;;;6.40;5.80;;;11.30;99.90;;;;;;4967652;28;20217;-74
2021/03/20 10:06:22;;;;;;;5.90;5.35;;;10.50;99.90;;;;;;4972399;28;20213;-74
2021/03/20 10:09:00;;;;;;;7.80;6.20;;;10.40;99.90;;;;;;4972081;28;20244;-74
2021/03/20 10:11:33;;;;;;;6.97;6.32;;;10.90;99.90;;;;;;4972121;28;20248;-74
2021/03/20 10:14:01;;;;;;;7.35;6.55;;;12.00;99.90;;;;;;4972255;28;20295;-74
2021/03/20 10:16:31;;;;;;;6.85;6.25;;;14.90;99.90;;;;;;4972291;28;20209;-75
2021/03/20 10:19:09;;;;;;;7.60;6.88;;;15.90;99.90;;;;;;4962279;28;20233;-75
2021/03/20 10:21:36;;;;;;;7.38;6.70;;;16.10;99.90;;;;;;4962573;28;20591;-74
2021/03/20 10:24:24;;;;;;;7.65;6.82;;;14.30;99.90;;;;;;4960365;28;20207;-74
2021/03/20 10:27:02;;;;;;;7.20;6.60;;;14.40;99.90;;;;;;4960095;28;20217;-74
2021/03/20 10:29:32;;;;;;;7.30;6.60;;;14.70;99.90;;;;;;4959104;28;20206;-75
2021/03/20 10:32:07;;;;;;;6.35;5.75;;;15.90;99.90;;;;;;4957439;28;20233;-74
2021/03/20 10:34:46;;;;;;;6.57;5.88;;;15.10;99.90;;;;;;4972415;28;20214;-76
2021/03/20 10:37:14;;;;;;;6.88;6.28;;;14.30;99.90;;;;;;4967427;28;20228;-72
2021/03/20 10:39:43;;;;;;;7.45;6.72;;;10.60;99.90;;;;;;4965561;28;20233;-74
2021/03/20 10:42:18;;;;;;;6.97;6.13;;;9.70;99.90;;;;;;4971793;28;20665;-74
2021/03/20 10:44:46;;;;;;;7.00;6.30;;;9.50;99.90;;;;;;4963957;28;20212;-75
2021/03/20 10:47:23;;;;;;;6.87;6.27;;;9.60;99.90;;;;;;4969413;28;20260;-74
2021/03/20 10:49:53;;;;;;;6.43;5.83;;;9.60;99.90;;;;;;4968045;28;20213;-76
2021/03/20 10:52:24;;;;;;;7.23;6.20;;;9.90;99.90;;;;;;4960579;28;20655;-73
2021/03/20 10:54:55;;;;;;;6.17;5.60;;;9.80;99.90;;;;;;4957474;28;20206;-74
2021/03/20 10:57:24;;;;;;;7.50;6.53;;;9.90;99.90;;;;;;4963645;28;20576;-73
2021/03/20 10:59:51;;;;;;;6.90;6.20;;;9.40;99.90;;;;;;4962212;28;20237;-72
2021/03/20 11:02:28;;;;;;;7.00;6.30;;;9.60;99.90;;;;;;4970551;28;20201;-74
2021/03/20 11:05:24;;;;;;;10.17;5.70;;;8.60;99.90;;;;;;4965340;28;20206;-78
2021/03/20 11:07:55;;;;;;;6.20;5.60;;;8.40;99.90;;;;;;4967159;28;20224;-75
2021/03/20 11:10:30;;;;;;;5.53;5.03;;;9.00;99.90;;;;;;4951487;28;20695;-75
2021/03/20 11:13:02;;;;;;;5.67;5.17;;;8.90;99.90;;;;;;4960270;28;20207;-76
2021/03/20 11:15:30;;;;;;;6.70;5.50;;;9.60;99.90;;;;;;4971732;28;20697;-73
2021/03/20 11:17:59;;;;;;;7.30;5.70;;;9.30;99.90;;;;;;4971425;28;20204;-74
2021/03/20 11:20:32;;;;;;;5.67;5.00;;;8.80;99.90;;;;;;4964910;28;20233;-75
2021/03/20 11:22:59;;;;;;;5.37;4.87;;;8.30;99.90;;;;;;4973260;28;20202;-77
2021/03/20 11:25:35;;;;;;;7.10;6.00;;;8.40;99.90;;;;;;4970512;28;20687;-75
2021/03/20 11:28:05;;;;;;;5.20;4.43;;;9.20;99.90;;;;;;4955603;29;20217;-74
2021/03/20 11:30:40;;;;;;;5.60;4.93;;;10.20;99.90;;;;;;4965236;28;20224;-75
2021/03/20 11:33:07;;;;;;;6.00;4.53;;;10.30;99.90;;;;;;4974373;28;20277;-75
2021/03/20 11:35:37;;;;;;;6.03;5.43;;;10.10;99.90;;;;;;4964061;28;20207;-77
2021/03/20 11:38:04;;;;;;;8.93;7.87;;;10.10;99.90;;;;;;4971381;28;20301;-75
2021/03/20 11:40:37;;;;;;;4.93;4.43;;;10.20;99.90;;;;;;4974549;28;20772;-75
2021/03/20 11:43:06;;;;;;;7.50;6.17;;;9.90;99.90;;;;;;4964427;28;20218;-74
2021/03/20 11:45:35;;;;;;;5.27;4.77;;;9.20;99.90;;;;;;4956054;29;20206;-75
2021/03/20 11:48:14;;;;;;;5.00;4.43;;;9.10;99.90;;;;;;4955405;29;20218;-75
2021/03/20 11:50:41;;;;;;;4.97;4.20;;;9.70;99.90;;;;;;4955196;28;20210;-75
2021/03/20 11:53:23;;;;;;;5.77;4.80;;;10.00;99.90;;;;;;4966260;28;20208;-76
2021/03/20 11:55:52;;;;;;;4.83;4.30;;;10.20;99.90;;;;;;4974193;28;20712;-75
2021/03/20 11:58:27;;;;;;;5.40;4.90;;;9.60;99.90;;;;;;4974191;28;20241;-77
2021/03/20 12:00:53;;;;;;;4.57;4.17;;;9.50;99.90;;;;;;4973106;28;20314;-75
2021/03/20 12:03:40;;;;;;;4.37;3.97;;;10.00;99.90;;;;;;4966975;28;20211;-75
2021/03/20 12:06:30;;;;;;;4.20;3.80;;;10.00;99.90;;;;;;4965864;28;20587;-74
2021/03/20 12:08:57;;;;;;;4.63;4.13;;;10.20;99.90;;;;;;4954503;28;20218;-75
2021/03/20 12:11:56;;;;;;;4.47;3.37;;;10.30;99.90;;;;;;4954897;29;20213;-76
2021/03/20 12:14:38;;;;;;;6.33;4.43;;;10.70;99.90;;;;;;4963735;28;20269;-75
2021/03/20 12:17:11;;;;;;;5.57;4.17;;;10.40;99.90;;;;;;4970353;28;20210;-75
2021/03/20 12:19:52;;;;;;;4.17;3.77;;;10.60;99.90;;;;;;4955138;29;20738;-76
2021/03/20 12:22:30;;;;;;;3.67;3.37;;;10.50;99.90;;;;;;4974050;28;20213;-75
2021/03/20 12:25:02;;;;;;;3.40;3.10;;;9.90;99.90;;;;;;4973584;28;20201;-74
2021/03/20 12:27:33;;;;;;;4.77;4.27;;;9.90;99.90;;;;;;4973642;28;20353;-75
2021/03/20 12:30:05;;;;;;;4.63;3.77;;;9.70;99.90;;;;;;4963967;28;20213;-74
2021/03/20 12:32:35;;;;;;;5.17;4.50;;;9.40;99.90;;;;;;4967704;28;20202;-74
2021/03/20 12:35:33;;;;;;;4.37;3.83;;;9.70;99.90;;;;;;4966296;28;20702;-75
2021/03/20 12:38:27;;;;;;;6.60;4.30;;;9.70;99.90;;;;;;4905815;29;20762;-74
2021/03/20 12:40:58;;;;;;;3.57;3.27;;;9.80;99.90;;;;;;4934762;28;20244;-73
2021/03/20 12:43:29;;;;;;;4.60;4.03;;;10.10;99.90;;;;;;4963005;28;20206;-74
2021/03/20 12:45:57;;;;;;;3.27;2.93;;;10.40;99.90;;;;;;4970267;28;20205;-73
2021/03/20 12:48:25;;;;;;;4.33;3.93;;;10.50;99.90;;;;;;4966263;28;20206;-74
2021/03/20 12:51:00;;;;;;;5.50;4.00;;;11.10;99.90;;;;;;4968703;28;20257;-77
2021/03/20 12:53:26;;;;;;;4.43;4.03;;;11.30;99.90;;;;;;4973047;28;20201;-73
2021/03/20 12:55:53;;;;;;;5.70;4.90;;;11.10;99.90;;;;;;4969405;28;20198;-75
2021/03/20 12:58:19;;;;;;;4.93;4.10;;;10.20;99.90;;;;;;4954076;29;20210;-74
2021/03/20 13:00:46;;;;;;;5.87;4.20;;;9.50;99.90;;;;;;4953937;28;20710;-72
2021/03/20 13:03:13;;;;;;;4.97;3.87;;;9.50;99.90;;;;;;4961230;28;20259;-73
2021/03/20 13:05:42;;;;;;;5.37;4.73;;;9.50;99.90;;;;;;4954865;28;20261;-72
2021/03/20 13:08:09;;;;;;;4.00;3.37;;;10.30;99.90;;;;;;4966396;28;20217;-72
2021/03/20 13:10:36;;;;;;;3.67;3.27;;;10.60;99.90;;;;;;4972771;28;20209;-74
2021/03/20 13:13:02;;;;;;;4.70;3.40;;;10.30;99.90;;;;;;4972842;28;20213;-74
2021/03/20 13:15:29;;;;;;;3.57;3.00;;;10.50;99.90;;;;;;4970462;28;20750;-73
2021/03/20 13:17:56;;;;;;;3.80;3.10;;;10.90;99.90;;;;;;4953530;28;20210;-72
2021/03/20 13:20:24;;;;;;;4.03;3.73;;;11.00;99.90;;;;;;4965705;28;20287;-73
2021/03/20 13:22:52;;;;;;;3.87;3.47;;;11.10;99.90;;;;;;4972490;28;20201;-73
2021/03/20 13:25:23;;;;;;;4.40;3.63;;;11.40;99.90;;;;;;4964225;28;20698;-73
2021/03/20 13:27:49;;;;;;;5.37;4.83;;;11.50;99.90;;;;;;4970868;28;20197;-74